createdAt,value
2022-10-09T00:00:50.091Z,12.60
2022-10-09T00:03:17.877Z,12.53
2022-10-09T00:05:45.392Z,12.46
2022-10-09T00:08:11.891Z,12.41
2022-10-09T00:10:42.942Z,12.44
2022-10-09T00:13:09.596Z,12.33
2022-10-09T00:15:40.438Z,12.34
2022-10-09T00:18:08.017Z,12.23
2022-10-09T00:20:39.508Z,12.24
2022-10-09T00:23:06.890Z,12.15
2022-10-09T00:25:34.279Z,12.10
2022-10-09T00:28:00.695Z,12.06
2022-10-09T00:30:27.909Z,12.04
2022-10-09T00:32:54.896Z,11.98
2022-10-09T00:35:22.366Z,11.95
2022-10-09T00:37:48.919Z,11.92
2022-10-09T00:40:16.387Z,11.91
2022-10-09T00:42:45.710Z,11.86
2022-10-09T00:45:21.387Z,11.90
2022-10-09T00:47:54.388Z,11.85
2022-10-09T00:50:28.327Z,11.81
2022-10-09T00:52:58.962Z,11.77
2022-10-09T00:55:27.663Z,11.70
2022-10-09T00:57:56.081Z,11.68
2022-10-09T01:00:22.975Z,11.64
2022-10-09T01:02:49.685Z,11.60
2022-10-09T01:05:16.499Z,11.58
2022-10-09T01:08:10.360Z,11.72
2022-10-09T01:10:45.326Z,11.57
2022-10-09T01:13:18.176Z,11.49
2022-10-09T01:15:48.844Z,11.49
2022-10-09T01:18:24.352Z,11.46
2022-10-09T01:20:56.693Z,11.40
2022-10-09T01:23:55.668Z,11.35
2022-10-09T01:26:52.952Z,11.40
2022-10-09T01:29:24.216Z,11.25
2022-10-09T01:31:52.192Z,11.16
2022-10-09T01:34:20.477Z,11.11
2022-10-09T01:36:47.540Z,11.08
2022-10-09T01:39:18.110Z,11.09
2022-10-09T01:41:46.540Z,11.00
2022-10-09T01:44:24.800Z,11.05
2022-10-09T01:46:51.696Z,10.95
2022-10-09T01:49:26.941Z,10.95
2022-10-09T01:52:02.685Z,10.94
2022-10-09T01:54:49.937Z,10.96
2022-10-09T01:57:29.017Z,10.88
2022-10-09T01:59:57.926Z,10.80
2022-10-09T02:02:25.418Z,10.76
2022-10-09T02:04:52.723Z,10.73
2022-10-09T02:07:19.597Z,10.71
2022-10-09T02:09:46.609Z,10.68
2022-10-09T02:12:15.208Z,10.67
2022-10-09T02:14:41.657Z,10.63
2022-10-09T02:17:18.202Z,10.70
2022-10-09T02:19:50.796Z,10.65
2022-10-09T02:22:21.647Z,10.60
2022-10-09T02:24:48.685Z,10.55
2022-10-09T02:27:16.626Z,10.53
2022-10-09T02:29:45.420Z,10.51
2022-10-09T02:32:12.477Z,10.48
2022-10-09T02:34:39.009Z,10.45
2022-10-09T02:37:05.950Z,10.42
2022-10-09T02:39:32.470Z,10.39
2022-10-09T02:41:58.917Z,10.37
2022-10-09T02:44:25.545Z,10.35
2022-10-09T02:46:52.041Z,10.33
2022-10-09T02:49:18.897Z,10.31
2022-10-09T02:51:45.380Z,10.58
2022-10-09T02:54:12.041Z,10.28
2022-10-09T02:56:39.211Z,10.26
2022-10-09T02:59:05.950Z,10.23
2022-10-09T03:01:32.523Z,10.21
2022-10-09T03:03:59.242Z,10.21
2022-10-09T03:06:27.222Z,10.19
2022-10-09T03:08:54.553Z,10.16
2022-10-09T03:11:23.335Z,10.18
2022-10-09T03:13:50.406Z,10.15
2022-10-09T03:16:19.554Z,10.15
2022-10-09T03:18:46.754Z,10.13
2022-10-09T03:21:19.058Z,10.14
2022-10-09T03:23:45.533Z,10.11
2022-10-09T03:26:18.267Z,10.15
2022-10-09T03:28:50.074Z,10.09
2022-10-09T03:31:39.615Z,10.07
2022-10-09T03:34:05.114Z,10.04
2022-10-09T03:36:31.628Z,10.02
2022-10-09T03:38:58.035Z,9.99
2022-10-09T03:41:24.454Z,9.96
2022-10-09T03:43:50.951Z,9.93
2022-10-09T03:46:17.434Z,9.89
2022-10-09T03:48:43.963Z,9.86
2022-10-09T03:51:10.384Z,9.84
2022-10-09T03:53:37.051Z,9.82
2022-10-09T03:56:03.598Z,9.79
2022-10-09T03:58:30.073Z,9.77
2022-10-09T04:00:56.721Z,9.75
2022-10-09T04:03:23.551Z,9.73
2022-10-09T04:05:49.944Z,10.01
2022-10-09T04:08:16.407Z,9.74
2022-10-09T04:10:42.832Z,9.71
2022-10-09T04:13:09.317Z,9.69
2022-10-09T04:15:36.709Z,9.67
